Airfield :
LOGIN :

Register | Disclaimer

   EN    FR    IT 

 










Legend :    VFR   Marginal VFR   IFR   Intensive IFR   Very Intensive IFR
Visi :
Ceiling :
>= 8 km
>= 3000ft
5 to 8 km
1000 to 3000 ft
1500m to 5 km
500 to 1000 ft
800 to 1500m
200 to 500 ft
< 800m
< 200 ft
Symbols :   Thunderstorms  Fog  Heavy snow  Heavy precipitations  Wind > 20 kt
SIGMETs :     Misc.  Thunderstorms  Icing  Turbulence  Mountain Waves  Volcanic Ashes







- Airport Elevation : 502 ft
- IATA code : ORK


EICK - Cork

CURRENT METAR :
  • 220330Z 12009KT 0400 R16/0500N R34/0500N FG SCT001 OVC002 08/08 Q1003 NOSIG

EXPIRED METARs :
  • 220300Z 12011KT 0700 R16/1000D R34/1000D FG SCT001 OVC002 08/08 Q1004 NOSIG
  • 220230Z 12011KT 2000 BR SCT001 BKN002 08/08 Q1004 TEMPO 0800
  • 220200Z 12011KT 2000 BR OVC002 08/07 Q1005 TEMPO 0800
  • 220130Z 13011KT 4000 BR OVC002 08/07 Q1006 TEMPO 2000
  • 220100Z 14011KT 4000 -DZ OVC003 07/07 Q1006 TEMPO 2000

TAF TAF EICK
Valid from the 22 at 00:00 until the 23 at 00:00 UTC


212300Z 2200/2224 17010KT 6000 BKN003
BECMG 2200/2202 14010KT
TEMPO 2200/2208 2000 BR
PROB40
TEMPO 2200/2208 0300 -DZ FG BKN000
BECMG 2207/2209 11010KT 9999 NSW FEW010
BECMG 2209/2211 16013KT
BECMG 2216/2218 3000 -DZ BR BKN005
BECMG 2219/2222 09007KT
No reported NOTAMs for that airfield.



MET'MAP, your aeronautical weather chart ! - Copyright ORBIFLY December 2007 - Disclaimer

ORBIFLY MET'MAP TEAM :

Programming & Development : Alexandra Zaïnal
Concept & Development : Baudouin d'Aumeries
Co-Development & Prog : Marc-Olivier Méhu
Technical & hardware support : Manuel Goepfert

Contact : metmap@orbifly.com




SOURCES & CREDITS :

   NOAA